sensor_id;sensor_type;location;lat;lon;timestamp;pressure;altitude;pressure_sealevel;temperature;humidity
80137;BME280;69466;55.948;37.484;2024-01-30T00:00:45;100669.88;;;0.35;77.78
80137;BME280;69466;55.948;37.484;2024-01-30T00:03:11;100670.94;;;0.44;77.33
80137;BME280;69466;55.948;37.484;2024-01-30T00:05:37;100634.75;;;0.19;77.57
80137;BME280;69466;55.948;37.484;2024-01-30T00:08:04;100667.44;;;0.32;77.65
80137;BME280;69466;55.948;37.484;2024-01-30T00:10:30;100664.28;;;0.38;78.00
80137;BME280;69466;55.948;37.484;2024-01-30T00:12:56;100679.78;;;0.44;77.54
80137;BME280;69466;55.948;37.484;2024-01-30T00:15:23;100654.63;;;0.26;77.69
80137;BME280;69466;55.948;37.484;2024-01-30T00:17:49;100638.44;;;0.18;77.81
80137;BME280;69466;55.948;37.484;2024-01-30T00:20:17;100655.22;;;0.30;77.59
80137;BME280;69466;55.948;37.484;2024-01-30T00:22:43;100653.88;;;0.35;77.87
80137;BME280;69466;55.948;37.484;2024-01-30T00:25:10;100663.69;;;0.35;78.28
80137;BME280;69466;55.948;37.484;2024-01-30T00:27:36;100669.34;;;0.41;77.86
80137;BME280;69466;55.948;37.484;2024-01-30T00:30:03;100665.00;;;0.40;77.83
80137;BME280;69466;55.948;37.484;2024-01-30T00:32:30;100661.81;;;0.47;78.02
80137;BME280;69466;55.948;37.484;2024-01-30T00:34:56;100662.91;;;0.44;78.34
80137;BME280;69466;55.948;37.484;2024-01-30T00:37:23;100665.00;;;0.40;77.81
80137;BME280;69466;55.948;37.484;2024-01-30T00:39:49;100656.16;;;0.40;78.01
80137;BME280;69466;55.948;37.484;2024-01-30T00:42:15;100635.69;;;0.29;77.90
80137;BME280;69466;55.948;37.484;2024-01-30T00:44:42;100659.97;;;0.47;78.04
80137;BME280;69466;55.948;37.484;2024-01-30T00:47:08;100644.22;;;0.44;77.81
80137;BME280;69466;55.948;37.484;2024-01-30T00:49:36;100629.66;;;0.27;78.12
80137;BME280;69466;55.948;37.484;2024-01-30T00:52:02;100654.34;;;0.40;78.42
80137;BME280;69466;55.948;37.484;2024-01-30T00:54:30;100611.66;;;0.09;78.62
80137;BME280;69466;55.948;37.484;2024-01-30T00:56:56;100639.56;;;0.36;78.11
80137;BME280;69466;55.948;37.484;2024-01-30T00:59:22;100651.38;;;0.43;77.66
80137;BME280;69466;55.948;37.484;2024-01-30T01:01:48;100647.28;;;0.39;78.02
80137;BME280;69466;55.948;37.484;2024-01-30T01:04:14;100648.91;;;0.52;78.08
80137;BME280;69466;55.948;37.484;2024-01-30T01:06:40;100657.19;;;0.49;77.48
80137;BME280;69466;55.948;37.484;2024-01-30T01:09:11;100638.97;;;0.54;78.00
80137;BME280;69466;55.948;37.484;2024-01-30T01:11:37;100645.72;;;0.58;77.86
80137;BME280;69466;55.948;37.484;2024-01-30T01:14:04;100608.34;;;0.37;77.49
80137;BME280;69466;55.948;37.484;2024-01-30T01:16:31;100634.59;;;0.53;77.62
80137;BME280;69466;55.948;37.484;2024-01-30T01:18:57;100643.56;;;0.52;78.10
80137;BME280;69466;55.948;37.484;2024-01-30T01:21:23;100607.56;;;0.25;78.07
80137;BME280;69466;55.948;37.484;2024-01-30T01:23:49;100631.06;;;0.52;78.30
80137;BME280;69466;55.948;37.484;2024-01-30T01:26:15;100619.09;;;0.47;77.74
80137;BME280;69466;55.948;37.484;2024-01-30T01:28:41;100610.84;;;0.50;77.67
80137;BME280;69466;55.948;37.484;2024-01-30T01:31:08;100612.72;;;0.59;77.57
80137;BME280;69466;55.948;37.484;2024-01-30T01:33:34;100604.09;;;0.55;77.90
80137;BME280;69466;55.948;37.484;2024-01-30T01:36:02;100609.44;;;0.55;77.74
80137;BME280;69466;55.948;37.484;2024-01-30T01:38:28;100614.53;;;0.58;77.51
80137;BME280;69466;55.948;37.484;2024-01-30T01:40:56;100620.44;;;0.62;77.80
80137;BME280;69466;55.948;37.484;2024-01-30T01:43:23;100624.03;;;0.72;77.54
80137;BME280;69466;55.948;37.484;2024-01-30T01:45:50;100627.22;;;0.66;77.43
80137;BME280;69466;55.948;37.484;2024-01-30T01:48:41;100636.66;;;0.70;77.56
80137;BME280;69466;55.948;37.484;2024-01-30T01:51:14;100596.53;;;0.60;77.68
80137;BME280;69466;55.948;37.484;2024-01-30T01:53:43;100626.31;;;0.76;77.21
80137;BME280;69466;55.948;37.484;2024-01-30T01:56:12;100601.88;;;0.60;77.51
80137;BME280;69466;55.948;37.484;2024-01-30T01:58:43;100618.41;;;0.75;77.46
80137;BME280;69466;55.948;37.484;2024-01-30T02:01:12;100611.59;;;0.82;77.40
80137;BME280;69466;55.948;37.484;2024-01-30T02:03:41;100624.50;;;0.77;77.48
80137;BME280;69466;55.948;37.484;2024-01-30T02:06:09;100621.16;;;0.84;77.25
80137;BME280;69466;55.948;37.484;2024-01-30T02:08:37;100599.59;;;0.76;77.46
80137;BME280;69466;55.948;37.484;2024-01-30T02:11:03;100582.41;;;0.69;77.13
80137;BME280;69466;55.948;37.484;2024-01-30T02:13:30;100603.88;;;0.88;76.97
80137;BME280;69466;55.948;37.484;2024-01-30T02:15:56;100592.56;;;0.75;77.12
80137;BME280;69466;55.948;37.484;2024-01-30T02:18:22;100596.13;;;0.85;77.04
80137;BME280;69466;55.948;37.484;2024-01-30T02:21:08;100601.88;;;0.81;77.00
80137;BME280;69466;55.948;37.484;2024-01-30T02:23:34;100600.50;;;0.86;76.99
80137;BME280;69466;55.948;37.484;2024-01-30T02:26:00;100611.25;;;0.96;76.62
80137;BME280;69466;55.948;37.484;2024-01-30T02:28:27;100595.28;;;0.85;77.00
80137;BME280;69466;55.948;37.484;2024-01-30T02:30:53;100626.00;;;1.00;76.94
80137;BME280;69466;55.948;37.484;2024-01-30T02:33:20;100617.72;;;1.03;76.77
80137;BME280;69466;55.948;37.484;2024-01-30T02:35:48;100561.22;;;0.77;76.93
80137;BME280;69466;55.948;37.484;2024-01-30T02:38:19;100595.19;;;0.96;76.66
80137;BME280;69466;55.948;37.484;2024-01-30T02:40:45;100615.78;;;1.05;76.63
80137;BME280;69466;55.948;37.484;2024-01-30T02:43:11;100600.56;;;1.06;76.60
80137;BME280;69466;55.948;37.484;2024-01-30T02:45:37;100610.16;;;1.08;76.77
80137;BME280;69466;55.948;37.484;2024-01-30T02:48:04;100611.97;;;1.08;76.52
80137;BME280;69466;55.948;37.484;2024-01-30T02:50:30;100622.66;;;1.08;76.91
80137;BME280;69466;55.948;37.484;2024-01-30T02:52:56;100610.16;;;1.08;76.37
80137;BME280;69466;55.948;37.484;2024-01-30T02:55:22;100575.72;;;0.84;76.96
80137;BME280;69466;55.948;37.484;2024-01-30T02:57:48;100611.13;;;1.07;76.59
80137;BME280;69466;55.948;37.484;2024-01-30T03:00:14;100629.75;;;1.18;76.12
80137;BME280;69466;55.948;37.484;2024-01-30T03:02:40;100629.03;;;1.16;76.65
80137;BME280;69466;55.948;37.484;2024-01-30T03:05:08;100623.97;;;1.13;76.24
80137;BME280;69466;55.948;37.484;2024-01-30T03:07:34;100609.03;;;1.11;75.98
80137;BME280;69466;55.948;37.484;2024-01-30T03:10:00;100627.38;;;1.25;76.00
80137;BME280;69466;55.948;37.484;2024-01-30T03:12:26;100625.81;;;1.22;75.87
80137;BME280;69466;55.948;37.484;2024-01-30T03:14:52;100640.50;;;1.28;76.19
80137;BME280;69466;55.948;37.484;2024-01-30T03:17:18;100615.13;;;1.22;75.73
80137;BME280;69466;55.948;37.484;2024-01-30T03:19:52;100643.44;;;1.34;75.80
80137;BME280;69466;55.948;37.484;2024-01-30T03:28:55;100627.41;;;1.34;76.00
80137;BME280;69466;55.948;37.484;2024-01-30T03:31:21;100642.06;;;1.40;76.04
80137;BME280;69466;55.948;37.484;2024-01-30T03:33:47;100615.44;;;1.39;76.12
80137;BME280;69466;55.948;37.484;2024-01-30T03:36:15;100648.38;;;1.39;75.67
80137;BME280;69466;55.948;37.484;2024-01-30T03:38:42;100653.03;;;1.37;76.51
80137;BME280;69466;55.948;37.484;2024-01-30T03:41:34;100650.97;;;1.50;76.27
80137;BME280;69466;55.948;37.484;2024-01-30T03:44:07;100655.19;;;1.53;75.29
80137;BME280;69466;55.948;37.484;2024-01-30T03:51:02;100653.22;;;1.45;76.27
80137;BME280;69466;55.948;37.484;2024-01-30T03:54:03;100650.69;;;1.53;75.72
80137;BME280;69466;55.948;37.484;2024-01-30T03:56:29;100632.66;;;1.46;75.45
80137;BME280;69466;55.948;37.484;2024-01-30T03:58:55;100652.25;;;1.56;75.49
80137;BME280;69466;55.948;37.484;2024-01-30T04:01:22;100660.69;;;1.61;75.91
80137;BME280;69466;55.948;37.484;2024-01-30T04:03:55;100650.81;;;1.52;75.80
80137;BME280;69466;55.948;37.484;2024-01-30T04:06:22;100656.22;;;1.71;75.43
80137;BME280;69466;55.948;37.484;2024-01-30T04:08:50;100660.47;;;1.73;75.74
80137;BME280;69466;55.948;37.484;2024-01-30T04:11:18;100643.53;;;1.63;75.54
80137;BME280;69466;55.948;37.484;2024-01-30T04:13:46;100644.41;;;1.64;75.58
80137;BME280;69466;55.948;37.484;2024-01-30T04:16:23;100636.94;;;1.67;75.07
80137;BME280;69466;55.948;37.484;2024-01-30T04:18:52;100636.63;;;1.61;75.34
80137;BME280;69466;55.948;37.484;2024-01-30T04:21:20;100646.09;;;1.74;74.64
80137;BME280;69466;55.948;37.484;2024-01-30T04:23:47;100640.47;;;1.77;75.13
80137;BME280;69466;55.948;37.484;2024-01-30T04:26:14;100635.22;;;1.66;75.07
80137;BME280;69466;55.948;37.484;2024-01-30T04:28:45;100640.75;;;1.84;75.06
80137;BME280;69466;55.948;37.484;2024-01-30T04:31:12;100628.06;;;1.67;75.00
80137;BME280;69466;55.948;37.484;2024-01-30T04:33:38;100642.75;;;1.82;75.13
80137;BME280;69466;55.948;37.484;2024-01-30T04:36:07;100646.41;;;1.81;74.75
80137;BME280;69466;55.948;37.484;2024-01-30T04:38:35;100584.53;;;1.46;75.18
80137;BME280;69466;55.948;37.484;2024-01-30T04:41:03;100644.41;;;1.73;74.69
80137;BME280;69466;55.948;37.484;2024-01-30T04:43:31;100632.44;;;1.68;74.86
80137;BME280;69466;55.948;37.484;2024-01-30T04:45:57;100655.28;;;1.91;75.04
80137;BME280;69466;55.948;37.484;2024-01-30T04:48:22;100635.69;;;1.81;75.21
80137;BME280;69466;55.948;37.484;2024-01-30T04:50:48;100658.66;;;1.93;75.44
80137;BME280;69466;55.948;37.484;2024-01-30T04:53:16;100635.97;;;1.97;75.25
80137;BME280;69466;55.948;37.484;2024-01-30T04:55:42;100613.56;;;1.60;74.94
80137;BME280;69466;55.948;37.484;2024-01-30T04:58:08;100640.75;;;1.84;75.25
80137;BME280;69466;55.948;37.484;2024-01-30T05:00:34;100639.06;;;1.93;74.75
80137;BME280;69466;55.948;37.484;2024-01-30T05:02:59;100629.63;;;1.89;75.06
80137;BME280;69466;55.948;37.484;2024-01-30T05:05:29;100640.78;;;1.94;75.47
80137;BME280;69466;55.948;37.484;2024-01-30T05:07:55;100638.94;;;1.94;75.24
80137;BME280;69466;55.948;37.484;2024-01-30T05:10:21;100644.72;;;1.99;74.87
80137;BME280;69466;55.948;37.484;2024-01-30T05:12:47;100653.31;;;2.03;75.03
80137;BME280;69466;55.948;37.484;2024-01-30T05:15:13;100637.94;;;1.86;74.90
80137;BME280;69466;55.948;37.484;2024-01-30T05:17:41;100623.28;;;1.80;74.75
80137;BME280;69466;55.948;37.484;2024-01-30T05:20:08;100648.22;;;1.81;74.74
80137;BME280;69466;55.948;37.484;2024-01-30T05:22:35;100658.41;;;1.96;75.33
80137;BME280;69466;55.948;37.484;2024-01-30T05:25:01;100664.31;;;2.00;75.04
80137;BME280;69466;55.948;37.484;2024-01-30T05:27:27;100671.78;;;2.06;74.64
80137;BME280;69466;55.948;37.484;2024-01-30T05:29:53;100647.69;;;1.96;74.89
80137;BME280;69466;55.948;37.484;2024-01-30T05:32:19;100651.06;;;1.98;75.10
80137;BME280;69466;55.948;37.484;2024-01-30T05:34:46;100656.16;;;2.01;75.13
80137;BME280;69466;55.948;37.484;2024-01-30T05:37:12;100633.31;;;1.97;75.10
80137;BME280;69466;55.948;37.484;2024-01-30T05:39:42;100653.88;;;2.06;75.01
80137;BME280;69466;55.948;37.484;2024-01-30T05:42:08;100659.41;;;2.14;74.48
80137;BME280;69466;55.948;37.484;2024-01-30T05:44:36;100659.41;;;2.14;74.32
80137;BME280;69466;55.948;37.484;2024-01-30T05:47:02;100672.91;;;2.13;74.16
80137;BME280;69466;55.948;37.484;2024-01-30T05:49:29;100677.28;;;2.14;74.99
80137;BME280;69466;55.948;37.484;2024-01-30T05:51:56;100659.97;;;2.18;74.39
80137;BME280;69466;55.948;37.484;2024-01-30T05:54:21;100658.38;;;2.15;74.64
80137;BME280;69466;55.948;37.484;2024-01-30T05:56:47;100669.69;;;2.09;74.75
80137;BME280;69466;55.948;37.484;2024-01-30T05:59:13;100684.34;;;2.25;74.64
80137;BME280;69466;55.948;37.484;2024-01-30T06:01:47;100688.00;;;2.23;74.44
80137;BME280;69466;55.948;37.484;2024-01-30T06:04:14;100673.03;;;2.11;74.46
80137;BME280;69466;55.948;37.484;2024-01-30T06:06:41;100665.00;;;2.11;74.38
80137;BME280;69466;55.948;37.484;2024-01-30T06:09:07;100676.13;;;2.07;74.98
80137;BME280;69466;55.948;37.484;2024-01-30T06:11:36;100660.66;;;2.10;74.73
80137;BME280;69466;55.948;37.484;2024-01-30T06:14:01;100698.72;;;2.23;74.69
80137;BME280;69466;55.948;37.484;2024-01-30T06:16:27;100686.19;;;2.14;74.44
80137;BME280;69466;55.948;37.484;2024-01-30T06:18:56;100699.28;;;2.17;74.22
80137;BME280;69466;55.948;37.484;2024-01-30T06:21:23;100682.22;;;2.18;74.17
80137;BME280;69466;55.948;37.484;2024-01-30T06:23:49;100712.69;;;2.37;74.12
80137;BME280;69466;55.948;37.484;2024-01-30T06:26:15;100696.91;;;2.34;74.30
80137;BME280;69466;55.948;37.484;2024-01-30T06:28:41;100700.81;;;2.30;74.03
80137;BME280;69466;55.948;37.484;2024-01-30T06:31:07;100711.97;;;2.44;74.38
80137;BME280;69466;55.948;37.484;2024-01-30T06:33:41;100691.69;;;2.32;74.42
80137;BME280;69466;55.948;37.484;2024-01-30T06:36:08;100701.25;;;2.35;73.69
80137;BME280;69466;55.948;37.484;2024-01-30T06:38:34;100714.22;;;2.49;74.01
80137;BME280;69466;55.948;37.484;2024-01-30T06:41:01;100714.38;;;2.47;74.21
80137;BME280;69466;55.948;37.484;2024-01-30T06:43:29;100722.84;;;2.43;73.76
80137;BME280;69466;55.948;37.484;2024-01-30T06:45:56;100705.09;;;2.51;73.64
80137;BME280;69466;55.948;37.484;2024-01-30T06:48:23;100704.34;;;2.40;73.93
80137;BME280;69466;55.948;37.484;2024-01-30T06:50:49;100715.78;;;2.32;74.28
80137;BME280;69466;55.948;37.484;2024-01-30T06:53:16;100703.66;;;2.38;74.18
80137;BME280;69466;55.948;37.484;2024-01-30T06:55:42;100705.50;;;2.37;74.07
80137;BME280;69466;55.948;37.484;2024-01-30T06:58:08;100706.34;;;2.38;73.79
80137;BME280;69466;55.948;37.484;2024-01-30T07:00:37;100727.50;;;2.50;73.64
80137;BME280;69466;55.948;37.484;2024-01-30T07:03:18;100728.78;;;2.56;73.92
80137;BME280;69466;55.948;37.484;2024-01-30T07:05:50;100685.91;;;2.27;74.25
80137;BME280;69466;55.948;37.484;2024-01-30T07:08:18;100734.56;;;2.61;74.12
80137;BME280;69466;55.948;37.484;2024-01-30T07:10:44;100689.41;;;2.18;73.42
80137;BME280;69466;55.948;37.484;2024-01-30T07:13:18;100710.56;;;2.50;73.54
80137;BME280;69466;55.948;37.484;2024-01-30T07:15:51;100730.59;;;2.65;73.62
80137;BME280;69466;55.948;37.484;2024-01-30T07:18:19;100737.78;;;2.64;72.89
80137;BME280;69466;55.948;37.484;2024-01-30T07:20:47;100729.19;;;2.61;73.36
80137;BME280;69466;55.948;37.484;2024-01-30T07:23:19;100728.34;;;2.70;72.90
80137;BME280;69466;55.948;37.484;2024-01-30T07:25:50;100672.38;;;2.19;73.79
80137;BME280;69466;55.948;37.484;2024-01-30T07:28:26;100739.63;;;2.74;72.62
80137;BME280;69466;55.948;37.484;2024-01-30T07:31:01;100720.88;;;2.64;73.07
80137;BME280;69466;55.948;37.484;2024-01-30T07:33:32;100739.88;;;2.80;73.15
80137;BME280;69466;55.948;37.484;2024-01-30T07:35:59;100746.94;;;2.81;72.95
80137;BME280;69466;55.948;37.484;2024-01-30T07:38:28;100749.75;;;2.99;72.70
80137;BME280;69466;55.948;37.484;2024-01-30T07:41:04;100741.00;;;2.97;72.50
80137;BME280;69466;55.948;37.484;2024-01-30T07:43:40;100746.50;;;3.05;72.80
80137;BME280;69466;55.948;37.484;2024-01-30T07:46:08;100734.59;;;3.17;71.70
80137;BME280;69466;55.948;37.484;2024-01-30T07:48:34;100745.34;;;3.17;72.50
80137;BME280;69466;55.948;37.484;2024-01-30T07:51:00;100733.75;;;3.17;71.82
80137;BME280;69466;55.948;37.484;2024-01-30T07:53:26;100739.16;;;3.07;71.80
80137;BME280;69466;55.948;37.484;2024-01-30T07:55:52;100726.03;;;2.94;72.46
80137;BME280;69466;55.948;37.484;2024-01-30T07:58:23;100719.13;;;3.01;71.48
80137;BME280;69466;55.948;37.484;2024-01-30T08:00:49;100732.53;;;3.11;71.29
80137;BME280;69466;55.948;37.484;2024-01-30T08:03:33;100741.84;;;3.07;72.60
80137;BME280;69466;55.948;37.484;2024-01-30T08:06:05;100741.41;;;3.11;71.51
80137;BME280;69466;55.948;37.484;2024-01-30T08:08:32;100754.09;;;3.19;72.44
80137;BME280;69466;55.948;37.484;2024-01-30T08:11:01;100760.88;;;3.04;72.63
80137;BME280;69466;55.948;37.484;2024-01-30T08:13:27;100748.44;;;3.12;71.81
80137;BME280;69466;55.948;37.484;2024-01-30T08:15:56;100750.88;;;2.96;72.25
80137;BME280;69466;55.948;37.484;2024-01-30T08:18:26;100736.63;;;2.96;72.04
80137;BME280;69466;55.948;37.484;2024-01-30T08:20:58;100760.19;;;3.11;72.56
80137;BME280;69466;55.948;37.484;2024-01-30T08:23:42;100758.50;;;3.10;72.69
80137;BME280;69466;55.948;37.484;2024-01-30T08:26:08;100745.66;;;3.04;71.67
80137;BME280;69466;55.948;37.484;2024-01-30T08:28:34;100721.53;;;2.95;72.60
80137;BME280;69466;55.948;37.484;2024-01-30T08:31:02;100765.66;;;3.20;71.69
80137;BME280;69466;55.948;37.484;2024-01-30T08:33:38;100749.56;;;3.29;71.90
80137;BME280;69466;55.948;37.484;2024-01-30T08:36:04;100740.13;;;3.16;72.54
80137;BME280;69466;55.948;37.484;2024-01-30T08:38:30;100727.41;;;3.18;71.50
80137;BME280;69466;55.948;37.484;2024-01-30T08:40:58;100733.50;;;3.20;71.45
80137;BME280;69466;55.948;37.484;2024-01-30T08:43:24;100715.28;;;3.13;71.88
80137;BME280;69466;55.948;37.484;2024-01-30T08:45:51;100732.06;;;3.25;71.85
80137;BME280;69466;55.948;37.484;2024-01-30T08:48:17;100714.00;;;3.18;71.42
80137;BME280;69466;55.948;37.484;2024-01-30T08:50:46;100748.41;;;3.32;71.57
80137;BME280;69466;55.948;37.484;2024-01-30T08:53:15;100758.72;;;3.36;70.94
80137;BME280;69466;55.948;37.484;2024-01-30T08:55:44;100752.34;;;3.37;70.60
80137;BME280;69466;55.948;37.484;2024-01-30T08:58:10;100752.50;;;3.26;71.40
80137;BME280;69466;55.948;37.484;2024-01-30T09:00:37;100745.44;;;3.35;71.32
80137;BME280;69466;55.948;37.484;2024-01-30T09:03:04;100741.75;;;3.36;71.22
80137;BME280;69466;55.948;37.484;2024-01-30T09:05:30;100749.97;;;3.34;71.41
80137;BME280;69466;55.948;37.484;2024-01-30T09:07:57;100758.28;;;3.41;71.39
80137;BME280;69466;55.948;37.484;2024-01-30T09:10:25;100753.88;;;3.49;71.38
80137;BME280;69466;55.948;37.484;2024-01-30T09:12:51;100751.06;;;3.41;71.30
80137;BME280;69466;55.948;37.484;2024-01-30T09:15:17;100713.00;;;3.28;71.10
80137;BME280;69466;55.948;37.484;2024-01-30T09:17:44;100719.97;;;3.48;70.47
80137;BME280;69466;55.948;37.484;2024-01-30T09:20:11;100718.03;;;3.41;70.81
80137;BME280;69466;55.948;37.484;2024-01-30T09:22:38;100723.47;;;3.58;71.05
80137;BME280;69466;55.948;37.484;2024-01-30T09:25:04;100740.44;;;3.49;71.33
80137;BME280;69466;55.948;37.484;2024-01-30T09:27:34;100704.41;;;3.25;71.98
80137;BME280;69466;55.948;37.484;2024-01-30T09:30:00;100726.38;;;3.38;71.85
80137;BME280;69466;55.948;37.484;2024-01-30T09:32:26;100735.41;;;3.37;71.79
80137;BME280;69466;55.948;37.484;2024-01-30T09:34:55;100720.47;;;3.34;71.78
80137;BME280;69466;55.948;37.484;2024-01-30T09:37:24;100720.03;;;3.39;71.02
80137;BME280;69466;55.948;37.484;2024-01-30T09:39:50;100711.84;;;3.31;71.55
80137;BME280;69466;55.948;37.484;2024-01-30T09:44:57;100742.59;;;3.46;71.43
80137;BME280;69466;55.948;37.484;2024-01-30T09:47:24;100738.38;;;3.43;71.44
80137;BME280;69466;55.948;37.484;2024-01-30T09:49:51;100716.75;;;3.45;71.31
80137;BME280;69466;55.948;37.484;2024-01-30T09:52:18;100738.44;;;3.61;71.45
80137;BME280;69466;55.948;37.484;2024-01-30T09:54:45;100734.66;;;3.81;70.48
80137;BME280;69466;55.948;37.484;2024-01-30T09:57:11;100724.69;;;3.74;70.11
80137;BME280;69466;55.948;37.484;2024-01-30T09:59:38;100742.22;;;3.95;69.98
80137;BME280;69466;55.948;37.484;2024-01-30T10:02:04;100723.81;;;4.00;69.87
80137;BME280;69466;55.948;37.484;2024-01-30T10:04:30;100738.91;;;4.11;69.54
80137;BME280;69466;55.948;37.484;2024-01-30T10:06:56;100745.72;;;4.06;69.84
80137;BME280;69466;55.948;37.484;2024-01-30T10:09:27;100729.34;;;3.99;69.45
80137;BME280;69466;55.948;37.484;2024-01-30T10:11:53;100739.63;;;4.03;69.53
80137;BME280;69466;55.948;37.484;2024-01-30T10:14:22;100720.97;;;3.84;69.58
80137;BME280;69466;55.948;37.484;2024-01-30T10:16:48;100734.84;;;3.80;70.09
80137;BME280;69466;55.948;37.484;2024-01-30T10:19:14;100700.91;;;3.79;69.93
80137;BME280;69466;55.948;37.484;2024-01-30T10:21:41;100715.28;;;3.87;70.78
80137;BME280;69466;55.948;37.484;2024-01-30T10:24:10;100710.00;;;3.95;70.35
80137;BME280;69466;55.948;37.484;2024-01-30T10:26:38;100734.44;;;4.02;69.78
80137;BME280;69466;55.948;37.484;2024-01-30T10:29:07;100717.56;;;3.82;69.74
80137;BME280;69466;55.948;37.484;2024-01-30T10:31:33;100723.34;;;3.87;70.09
80137;BME280;69466;55.948;37.484;2024-01-30T10:33:59;100697.13;;;3.72;70.61
80137;BME280;69466;55.948;37.484;2024-01-30T10:36:28;100723.19;;;3.89;69.31
80137;BME280;69466;55.948;37.484;2024-01-30T10:38:59;100692.72;;;3.80;70.55
80137;BME280;69466;55.948;37.484;2024-01-30T10:41:31;100711.22;;;3.83;70.16
80137;BME280;69466;55.948;37.484;2024-01-30T10:44:02;100716.09;;;3.97;70.29
80137;BME280;69466;55.948;37.484;2024-01-30T10:46:37;100709.16;;;3.95;69.51
80137;BME280;69466;55.948;37.484;2024-01-30T10:49:04;100689.44;;;3.86;69.95
80137;BME280;69466;55.948;37.484;2024-01-30T10:51:32;100720.28;;;4.00;69.01
80137;BME280;69466;55.948;37.484;2024-01-30T10:53:58;100665.31;;;3.77;69.28
80137;BME280;69466;55.948;37.484;2024-01-30T10:56:25;100693.00;;;3.77;69.29
80137;BME280;69466;55.948;37.484;2024-01-30T10:58:53;100705.25;;;3.89;69.26
80137;BME280;69466;55.948;37.484;2024-01-30T11:01:21;100724.47;;;4.12;69.37
80137;BME280;69466;55.948;37.484;2024-01-30T11:03:52;100737.78;;;4.04;70.59
80137;BME280;69466;55.948;37.484;2024-01-30T11:06:23;100742.72;;;3.81;70.19
80137;BME280;69466;55.948;37.484;2024-01-30T11:09:02;100749.47;;;3.85;70.59
80137;BME280;69466;55.948;37.484;2024-01-30T11:11:51;100726.59;;;3.81;70.59
80137;BME280;69466;55.948;37.484;2024-01-30T11:14:23;100732.44;;;3.77;70.83
80137;BME280;69466;55.948;37.484;2024-01-30T11:16:50;100743.03;;;3.78;71.13
80137;BME280;69466;55.948;37.484;2024-01-30T11:19:22;100737.97;;;3.75;70.75
80137;BME280;69466;55.948;37.484;2024-01-30T11:21:50;100745.31;;;3.73;70.80
80137;BME280;69466;55.948;37.484;2024-01-30T11:24:20;100755.28;;;3.81;70.88
80137;BME280;69466;55.948;37.484;2024-01-30T11:26:55;100741.78;;;3.73;71.03
80137;BME280;69466;55.948;37.484;2024-01-30T11:29:26;100714.56;;;3.58;70.95
80137;BME280;69466;55.948;37.484;2024-01-30T11:31:55;100731.06;;;3.63;70.33
80137;BME280;69466;55.948;37.484;2024-01-30T11:34:22;100762.81;;;3.77;71.00
80137;BME280;69466;55.948;37.484;2024-01-30T11:36:53;100776.84;;;3.71;71.91
80137;BME280;69466;55.948;37.484;2024-01-30T11:39:25;100750.72;;;3.64;71.76
80137;BME280;69466;55.948;37.484;2024-01-30T11:41:53;100758.91;;;3.62;71.36
80137;BME280;69466;55.948;37.484;2024-01-30T11:44:20;100782.06;;;3.63;70.62
80137;BME280;69466;55.948;37.484;2024-01-30T11:46:53;100756.31;;;3.43;71.52
80137;BME280;69466;55.948;37.484;2024-01-30T11:49:20;100775.31;;;3.59;71.67
80137;BME280;69466;55.948;37.484;2024-01-30T11:51:47;100758.81;;;3.44;72.34
80137;BME280;69466;55.948;37.484;2024-01-30T11:54:19;100779.41;;;3.53;71.72
80137;BME280;69466;55.948;37.484;2024-01-30T11:56:51;100778.84;;;3.50;71.81
80137;BME280;69466;55.948;37.484;2024-01-30T11:59:17;100791.53;;;3.57;71.63
80137;BME280;69466;55.948;37.484;2024-01-30T12:01:48;100766.72;;;3.46;71.74
80137;BME280;69466;55.948;37.484;2024-01-30T12:04:15;100778.84;;;3.50;72.14
80137;BME280;69466;55.948;37.484;2024-01-30T12:06:41;100780.66;;;3.59;72.23
80137;BME280;69466;55.948;37.484;2024-01-30T12:09:10;100759.84;;;3.43;72.45
80137;BME280;69466;55.948;37.484;2024-01-30T12:11:51;100779.13;;;3.56;71.47
80137;BME280;69466;55.948;37.484;2024-01-30T12:14:22;100745.88;;;3.30;71.24
80137;BME280;69466;55.948;37.484;2024-01-30T12:16:50;100776.44;;;3.56;71.54
80137;BME280;69466;55.948;37.484;2024-01-30T12:19:24;100786.34;;;3.56;71.57
80137;BME280;69466;55.948;37.484;2024-01-30T12:21:57;100796.97;;;3.48;71.59
80137;BME280;69466;55.948;37.484;2024-01-30T12:24:25;100764.81;;;3.19;71.53
80137;BME280;69466;55.948;37.484;2024-01-30T12:26:59;100796.69;;;3.41;72.09
80137;BME280;69466;55.948;37.484;2024-01-30T12:29:32;100776.66;;;3.26;72.06
80137;BME280;69466;55.948;37.484;2024-01-30T12:32:02;100778.19;;;3.38;70.87
80137;BME280;69466;55.948;37.484;2024-01-30T12:34:29;100790.13;;;3.53;71.48
80137;BME280;69466;55.948;37.484;2024-01-30T12:36:55;100779.59;;;3.42;71.66
80137;BME280;69466;55.948;37.484;2024-01-30T12:39:24;100759.56;;;3.27;71.51
80137;BME280;69466;55.948;37.484;2024-01-30T12:41:51;100782.00;;;3.36;71.35
80137;BME280;69466;55.948;37.484;2024-01-30T12:44:18;100789.59;;;3.50;71.35
80137;BME280;69466;55.948;37.484;2024-01-30T12:46:47;100767.91;;;3.34;71.29
80137;BME280;69466;55.948;37.484;2024-01-30T12:49:12;100784.97;;;3.33;71.54
80137;BME280;69466;55.948;37.484;2024-01-30T12:51:39;100750.84;;;3.25;72.00
80137;BME280;69466;55.948;37.484;2024-01-30T12:54:06;100747.75;;;3.20;71.72
80137;BME280;69466;55.948;37.484;2024-01-30T12:56:32;100777.34;;;3.38;71.86
80137;BME280;69466;55.948;37.484;2024-01-30T12:59:02;100781.97;;;3.45;71.25
80137;BME280;69466;55.948;37.484;2024-01-30T13:01:31;100781.44;;;3.42;71.96
80137;BME280;69466;55.948;37.484;2024-01-30T13:04:00;100782.59;;;3.30;71.93
80137;BME280;69466;55.948;37.484;2024-01-30T13:06:27;100787.09;;;3.39;72.49
80137;BME280;69466;55.948;37.484;2024-01-30T13:08:57;100774.81;;;3.27;72.26